Time;durP1;ratioP1;P1;durP2;ratioP2;P2;SDS_P1;SDS_P2;PMS_P1;PMS_P2;Temp;Humidity;BMP_temperature;BMP_pressure;BME280_temperature;BME280_humidity;BME280_pressure;Samples;Min_cycle;Max_cycle;Signal;HPM_P1;HPM_P2
2020/12/06 00:01:37;;;;;;;37.33;16.60;;;;;;;0.91;80.84;101847.67;126817;1095;104504;-77
2020/12/06 00:04:10;;;;;;;37.23;15.93;;;;;;;0.92;80.63;101847.81;126545;1097;104691;-77
2020/12/06 00:06:39;;;;;;;36.73;16.00;;;;;;;0.89;80.99;101850.11;126781;1095;104501;-78
2020/12/06 00:09:08;;;;;;;35.27;13.37;;;;;;;0.80;80.59;101851.80;126824;1096;104451;-78
2020/12/06 00:11:37;;;;;;;41.67;15.37;;;;;;;0.77;80.86;101852.41;126813;1095;104439;-77
2020/12/06 00:14:06;;;;;;;34.47;14.17;;;;;;;0.79;80.73;101849.97;126796;1095;104510;-79
2020/12/06 00:16:36;;;;;;;32.53;13.13;;;;;;;0.80;81.08;101851.80;126809;1095;104506;-77
2020/12/06 00:19:07;;;;;;;29.70;12.83;;;;;;;0.79;80.86;101861.20;126818;1095;104497;-76
2020/12/06 00:21:38;;;;;;;26.60;11.40;;;;;;;0.75;80.86;101853.01;126811;1096;104645;-77
2020/12/06 00:24:07;;;;;;;27.37;12.03;;;;;;;0.73;80.77;101851.96;126834;1095;104653;-77
2020/12/06 00:26:36;;;;;;;25.27;9.90;;;;;;;0.70;80.84;101855.15;126804;1095;104573;-76
2020/12/06 00:29:05;;;;;;;25.00;10.65;;;;;;;0.65;80.71;101858.97;126830;1095;104855;-77
2020/12/06 00:31:34;;;;;;;29.37;11.47;;;;;;;0.62;80.94;101854.41;126775;1094;104640;-78
2020/12/06 00:34:11;;;;;;;24.60;10.17;;;;;;;0.63;80.62;101847.59;126842;1094;104445;-79
2020/12/06 00:40:06;;;;;;;26.00;11.53;;;;;;;0.62;81.10;101849.23;126827;1094;104437;-77
2020/12/06 00:42:40;;;;;;;27.35;11.75;;;;;;;0.65;80.86;101849.53;126750;1094;104823;-77
2020/12/06 00:45:10;;;;;;;19.30;8.20;;;;;;;0.66;81.32;101848.78;126817;1094;104624;-78
2020/12/06 00:47:40;;;;;;;27.65;11.90;;;;;;;0.71;81.08;101851.81;127367;1092;104493;-77
2020/12/06 00:50:09;;;;;;;26.70;11.60;;;;;;;0.74;80.86;101849.52;127342;1093;104500;-79
2020/12/06 00:52:40;;;;;;;30.27;11.43;;;;;;;0.73;81.02;101851.96;127327;1092;104439;-78
2020/12/06 00:55:09;;;;;;;27.00;11.27;;;;;;;0.65;80.83;101852.12;127277;1091;104443;-76
2020/12/06 00:57:38;;;;;;;27.30;11.13;;;;;;;0.63;80.79;101855.34;127302;1091;104435;-79
2020/12/06 01:00:10;;;;;;;25.00;10.50;;;;;;;0.62;80.54;101856.09;127331;1092;104496;-78
2020/12/06 01:02:41;;;;;;;24.37;9.03;;;;;;;0.62;81.35;101846.66;127328;1092;104432;-78
2020/12/06 01:05:10;;;;;;;26.30;10.87;;;;;;;0.61;80.82;101856.84;127349;1092;104525;-77
2020/12/06 01:07:40;;;;;;;24.33;11.03;;;;;;;0.59;81.07;101856.69;127351;1092;104497;-78
2020/12/06 01:10:11;;;;;;;28.67;11.57;;;;;;;0.56;80.89;101858.97;127293;1092;104541;-77
2020/12/06 01:12:41;;;;;;;26.73;10.47;;;;;;;0.56;81.42;101856.39;127340;1092;104436;-77
2020/12/06 01:15:11;;;;;;;27.20;10.90;;;;;;;0.60;81.03;101855.94;127375;1092;104442;-77
2020/12/06 01:17:40;;;;;;;23.93;10.60;;;;;;;0.66;81.04;101847.88;127392;1093;104445;-76
2020/12/06 01:20:09;;;;;;;26.77;9.70;;;;;;;0.68;80.63;101849.83;127325;1092;104544;-77
2020/12/06 01:22:38;;;;;;;24.83;10.17;;;;;;;0.70;80.94;101844.81;127267;1092;104446;-78
2020/12/06 01:25:07;;;;;;;24.70;10.47;;;;;;;0.69;80.89;101846.50;127356;1092;104436;-77
2020/12/06 01:27:36;;;;;;;25.90;10.60;;;;;;;0.70;81.08;101847.39;127323;1092;104430;-78
2020/12/06 01:30:05;;;;;;;25.20;10.50;;;;;;;0.69;81.17;101843.91;127365;1092;104627;-77
2020/12/06 01:32:39;;;;;;;23.73;9.30;;;;;;;0.71;81.16;101839.80;126972;1092;104509;-77
2020/12/06 01:35:08;;;;;;;22.80;9.83;;;;;;;0.71;80.87;101842.38;127375;1091;104452;-76
2020/12/06 01:37:37;;;;;;;22.97;10.53;;;;;;;0.69;81.17;101841.33;127333;1092;104430;-77
2020/12/06 01:40:06;;;;;;;24.00;9.57;;;;;;;0.68;80.93;101842.08;127328;1092;104432;-78
2020/12/06 01:42:35;;;;;;;26.67;10.07;;;;;;;0.65;81.01;101841.78;127334;1092;104625;-78
2020/12/06 01:45:05;;;;;;;24.95;10.95;;;;;;;0.67;81.19;101837.70;127266;1092;104442;-78
2020/12/06 01:54:44;;;;;;;22.00;8.90;;;;;;;0.76;81.27;101835.07;126362;1097;104440;-78
2020/12/06 01:57:13;;;;;;;25.07;10.70;;;;;;;0.75;80.87;101834.92;126492;1097;104829;-76
2020/12/06 02:02:59;;;;;;;;;;;;;;;0.75;80.99;101829.75;126393;1095;104756;-77
2020/12/06 02:05:31;;;;;;;27.57;10.83;;;;;;;0.74;81.20;101831.44;126532;1097;104446;-78
2020/12/06 02:08:01;;;;;;;26.30;11.27;;;;;;;0.75;80.91;101837.51;126568;1096;104462;-77
2020/12/06 02:10:31;;;;;;;27.30;11.70;;;;;;;0.82;81.05;101845.09;126538;1096;104660;-78
2020/12/06 02:13:00;;;;;;;28.27;11.67;;;;;;;0.83;81.07;101842.66;126584;1097;104666;-79
2020/12/06 02:15:30;;;;;;;25.40;10.30;;;;;;;0.78;80.88;101837.80;126453;1097;104445;-79
2020/12/06 02:18:00;;;;;;;26.17;10.87;;;;;;;0.74;81.28;101841.77;126533;1096;104891;-78
2020/12/06 02:20:29;;;;;;;24.47;10.50;;;;;;;0.74;81.17;101843.45;126806;1095;104429;-77
2020/12/06 02:22:58;;;;;;;29.33;12.03;;;;;;;0.75;81.05;101842.67;126844;1095;104759;-76
2020/12/06 02:25:27;;;;;;;29.13;11.70;;;;;;;0.77;81.37;101836.00;126809;1095;104698;-76
2020/12/06 02:27:56;;;;;;;27.57;11.83;;;;;;;0.83;81.03;101836.59;126783;1096;104496;-76
2020/12/06 02:30:25;;;;;;;27.13;12.53;;;;;;;0.87;81.00;101838.69;127334;1092;104436;-77
2020/12/06 02:32:54;;;;;;;29.63;12.40;;;;;;;0.87;81.04;101833.52;127369;1092;104452;-77
2020/12/06 02:35:23;;;;;;;22.80;8.40;;;;;;;0.83;81.40;101836.59;127387;1092;104435;-76
2020/12/06 02:37:53;;;;;;;29.97;12.57;;;;;;;0.79;81.44;101831.88;127328;1092;105429;-77
2020/12/06 02:40:31;;;;;;;36.63;13.80;;;;;;;0.82;81.43;101834.77;126840;1094;104475;-76
2020/12/06 02:43:01;;;;;;;26.67;11.83;;;;;;;0.88;81.41;101835.35;127349;1092;104455;-78
2020/12/06 02:45:30;;;;;;;31.20;11.77;;;;;;;0.88;81.16;101832.77;127318;1092;104442;-76
2020/12/06 02:47:59;;;;;;;31.17;12.30;;;;;;;0.87;81.19;101844.79;127361;1092;104444;-77
2020/12/06 02:54:19;;;;;;;29.20;12.53;;;;;;;0.93;81.03;101839.28;126526;1095;104439;-77
2020/12/06 03:12:11;;;;;;;32.33;13.90;;;;;;;0.89;81.02;101834.60;125407;1108;104622;-77
2020/12/06 03:25:37;;;;;;;25.47;11.00;;;;;;;0.91;80.76;101847.67;124699;1114;104627;-77
2020/12/06 03:28:19;;;;;;;31.33;12.97;;;;;;;0.93;81.49;101848.72;124592;1111;104510;-77
2020/12/06 03:34:46;;;;;;;27.43;11.30;;;;;;;1.04;81.42;101848.98;124569;1114;104977;-77
2020/12/06 03:44:55;;;;;;;26.30;10.43;;;;;;;1.08;81.45;101843.33;124795;1110;104478;-77
2020/12/06 03:50:19;;;;;;;21.10;8.87;;;;;;;1.11;80.86;101846.95;125348;1108;104773;-78
2020/12/06 03:52:55;;;;;;;18.40;7.20;;;;;;;1.07;80.59;101848.34;125431;1105;103100;-76
2020/12/06 03:55:37;;;;;;;19.30;7.50;;;;;;;0.99;80.92;101845.03;125671;1105;104915;-76
2020/12/06 03:58:14;;;;;;;20.70;7.20;;;;;;;0.92;80.89;101836.55;125730;1102;104516;-77
2020/12/06 04:00:43;;;;;;;18.00;7.87;;;;;;;0.94;81.01;101847.96;126091;1101;103076;-77
2020/12/06 04:03:12;;;;;;;19.00;8.67;;;;;;;0.96;81.09;101839.56;126376;1098;104831;-77
2020/12/06 04:05:41;;;;;;;18.87;7.63;;;;;;;1.01;81.02;101843.53;126479;1099;104448;-77
2020/12/06 04:08:10;;;;;;;18.87;7.53;;;;;;;1.04;80.97;101838.65;126484;1098;104446;-77
2020/12/06 04:14:41;;;;;;;24.30;9.45;;;;;;;1.08;81.05;101832.09;125827;1100;104461;-77
2020/12/06 04:17:10;;;;;;;22.67;8.63;;;;;;;1.09;81.16;101836.47;126512;1099;104535;-76
2020/12/06 04:19:39;;;;;;;22.37;8.47;;;;;;;1.07;81.38;101833.73;126502;1097;104591;-77
2020/12/06 04:22:09;;;;;;;21.50;8.00;;;;;;;1.10;81.10;101842.57;126792;1095;104911;-77
2020/12/06 04:24:38;;;;;;;18.70;6.53;;;;;;;1.12;81.16;101830.69;126815;1095;104695;-77
2020/12/06 04:27:09;;;;;;;20.57;7.30;;;;;;;1.08;80.98;101829.50;126819;1095;104567;-76
2020/12/06 04:29:42;;;;;;;17.83;7.23;;;;;;;1.03;80.87;101834.23;126837;1095;104858;-76
2020/12/06 04:32:12;;;;;;;18.17;6.80;;;;;;;0.97;80.89;101833.65;126917;1096;104508;-76
2020/12/06 04:34:41;;;;;;;16.50;6.43;;;;;;;0.96;80.60;101833.50;126880;1095;104795;-77
2020/12/06 04:37:10;;;;;;;17.43;6.40;;;;;;;0.96;80.77;101833.50;126821;1095;104577;-77
2020/12/06 04:39:50;;;;;;;16.50;6.30;;;;;;;0.96;80.79;101836.98;126701;1095;104615;-77
2020/12/06 04:42:19;;;;;;;19.15;6.80;;;;;;;0.95;80.86;101832.60;126835;1095;104650;-76
2020/12/06 04:44:49;;;;;;;16.77;6.20;;;;;;;0.92;80.68;101828.80;126812;1095;104449;-78
2020/12/06 04:54:10;;;;;;;19.07;6.77;;;;;;;0.91;81.08;101830.48;126191;1101;104498;-77
2020/12/06 04:56:40;;;;;;;24.53;6.83;;;;;;;0.91;80.47;101827.89;126164;1102;104621;-77
2020/12/06 04:59:08;;;;;;;20.80;7.23;;;;;;;0.84;80.54;101833.22;126170;1101;104939;-79
2020/12/06 05:01:39;;;;;;;21.40;6.83;;;;;;;0.77;80.94;101834.31;126173;1102;104621;-77
2020/12/06 05:04:12;;;;;;;20.87;7.53;;;;;;;0.69;80.04;101843.02;126137;1102;104452;-78
2020/12/06 05:06:42;;;;;;;20.60;6.50;;;;;;;0.57;80.07;101837.55;126168;1101;104599;-77
2020/12/06 05:09:13;;;;;;;19.87;7.00;;;;;;;0.52;79.99;101846.55;126172;1101;104644;-77
2020/12/06 05:11:43;;;;;;;21.10;6.37;;;;;;;0.44;80.23;101850.95;126197;1101;104646;-80
2020/12/06 05:14:12;;;;;;;20.03;7.00;;;;;;;0.37;79.77;101850.20;126202;1101;104948;-79
2020/12/06 05:16:42;;;;;;;15.30;5.70;;;;;;;0.34;79.95;101854.32;126157;1101;104515;-77
2020/12/06 05:19:11;;;;;;;17.10;6.10;;;;;;;0.30;79.59;101859.93;126180;1102;104583;-77
2020/12/06 05:21:42;;;;;;;13.30;5.00;;;;;;;0.26;79.77;101860.37;126281;1099;104637;-77
2020/12/06 05:24:11;;;;;;;17.93;5.63;;;;;;;0.26;79.67;101870.70;126510;1099;104996;-81
2020/12/06 05:26:39;;;;;;;20.20;6.77;;;;;;;0.20;79.54;101864.03;126443;1098;104445;-78
2020/12/06 05:29:09;;;;;;;16.87;5.40;;;;;;;0.18;79.31;101881.95;126740;1095;104500;-77
2020/12/06 05:31:38;;;;;;;15.90;5.50;;;;;;;0.16;79.51;101886.06;126832;1095;104509;-78
2020/12/06 05:34:06;;;;;;;17.10;5.60;;;;;;;0.14;79.43;101882.39;126827;1095;104506;-77
2020/12/06 05:36:39;;;;;;;19.25;5.60;;;;;;;0.11;79.21;101890.77;126841;1095;104603;-76
2020/12/06 05:39:10;;;;;;;13.93;5.20;;;;;;;0.09;79.36;101896.52;126821;1095;104605;-78
2020/12/06 05:41:39;;;;;;;21.73;5.70;;;;;;;0.06;79.13;101903.95;126783;1095;104487;-78
2020/12/06 05:44:08;;;;;;;17.50;5.33;;;;;;;-0.01;78.96;101895.60;126840;1095;104753;-77
2020/12/06 05:46:38;;;;;;;18.73;5.37;;;;;;;-0.02;78.71;101900.61;126891;1096;104713;-78
2020/12/06 05:49:09;;;;;;;16.60;5.13;;;;;;;-0.10;79.03;101896.36;126837;1095;104491;-76
2020/12/06 05:51:40;;;;;;;14.03;5.17;;;;;;;-0.09;78.93;101911.09;126843;1096;104653;-78
2020/12/06 05:54:11;;;;;;;15.97;5.00;;;;;;;-0.11;78.74;101900.62;126830;1095;104634;-77
2020/12/06 05:56:44;;;;;;;14.70;5.10;;;;;;;-0.14;78.97;101902.89;126806;1095;104493;-77
2020/12/06 05:59:13;;;;;;;15.67;5.30;;;;;;;-0.16;78.97;101899.22;126839;1095;104618;-77
2020/12/06 06:01:42;;;;;;;18.07;5.33;;;;;;;-0.20;78.72;101910.00;126833;1095;104528;-78
2020/12/06 06:04:12;;;;;;;17.93;5.50;;;;;;;-0.23;78.74;101910.59;126804;1095;104580;-78
2020/12/06 06:06:44;;;;;;;12.23;4.50;;;;;;;-0.26;78.25;101917.13;126765;1095;104481;-78
2020/12/06 06:09:18;;;;;;;13.50;5.27;;;;;;;-0.24;78.72;101916.50;126801;1095;104493;-77
2020/12/06 06:11:56;;;;;;;15.60;4.40;;;;;;;-0.23;78.15;101922.59;126836;1096;104615;-80
2020/12/06 06:14:26;;;;;;;13.87;5.03;;;;;;;-0.24;78.84;101929.40;126778;1096;104487;-78
2020/12/06 06:16:56;;;;;;;14.50;4.80;;;;;;;-0.28;78.22;101926.34;126821;1095;104640;-79
2020/12/06 06:19:26;;;;;;;14.87;4.23;;;;;;;-0.27;78.26;101920.45;126816;1095;104657;-78
2020/12/06 06:21:56;;;;;;;15.23;5.20;;;;;;;-0.26;78.82;101920.60;126827;1094;104518;-78
2020/12/06 06:24:29;;;;;;;12.63;4.50;;;;;;;-0.27;78.32;101925.61;126800;1095;104503;-78
2020/12/06 06:27:02;;;;;;;12.58;4.00;;;;;;;-0.30;78.11;101926.19;126810;1096;104598;-77
2020/12/06 06:29:36;;;;;;;19.47;5.70;;;;;;;-0.30;78.25;101922.71;126803;1095;104491;-79
2020/12/06 06:32:10;;;;;;;17.80;5.20;;;;;;;-0.24;78.79;101923.34;126789;1095;104439;-79
2020/12/06 06:34:39;;;;;;;15.80;5.40;;;;;;;-0.20;78.98;101936.70;126791;1094;104691;-79
2020/12/06 06:37:16;;;;;;;14.43;4.67;;;;;;;-0.14;78.39;101940.66;126789;1095;104608;-77
2020/12/06 06:39:45;;;;;;;15.47;5.57;;;;;;;-0.13;78.28;101932.17;126792;1095;104634;-79
2020/12/06 06:42:14;;;;;;;19.10;6.20;;;;;;;-0.10;78.93;101930.80;126798;1096;104487;-79
2020/12/06 06:44:45;;;;;;;16.70;5.40;;;;;;;-0.05;78.40;101927.04;126766;1095;104494;-79
2020/12/06 06:47:16;;;;;;;18.80;6.23;;;;;;;-0.04;78.85;101923.68;126829;1095;104614;-80
2020/12/06 06:49:57;;;;;;;18.47;6.40;;;;;;;0.03;79.02;101926.88;126811;1095;104345;-80
2020/12/06 06:52:27;;;;;;;13.83;4.60;;;;;;;0.03;78.73;101922.62;126825;1095;104637;-78
2020/12/06 06:54:58;;;;;;;18.87;5.47;;;;;;;-0.02;78.36;101928.99;126796;1095;104609;-78
2020/12/06 06:57:29;;;;;;;25.27;6.20;;;;;;;-0.03;78.28;101925.52;126758;1095;104469;-77
2020/12/06 06:59:59;;;;;;;15.87;6.20;;;;;;;-0.04;78.54;101925.36;126810;1095;104728;-79
2020/12/06 07:02:33;;;;;;;24.43;7.30;;;;;;;-0.02;78.27;101924.77;126807;1095;104510;-79
2020/12/06 07:05:04;;;;;;;22.73;6.50;;;;;;;0.05;78.55;101933.09;126806;1095;104577;-78
2020/12/06 07:07:44;;;;;;;20.97;5.83;;;;;;;0.05;78.36;101939.20;126833;1095;104509;-79
2020/12/06 07:10:15;;;;;;;22.77;6.50;;;;;;;0.05;78.64;101938.26;126785;1095;104506;-78
2020/12/06 07:12:51;;;;;;;17.27;5.53;;;;;;;0.03;77.98;101943.27;126836;1095;104440;-78
2020/12/06 07:15:23;;;;;;;16.13;4.70;;;;;;;-0.01;78.40;101942.05;126842;1095;104611;-79
2020/12/06 07:17:55;;;;;;;17.90;5.97;;;;;;;-0.08;78.53;101939.63;126856;1095;104577;-81
2020/12/06 07:20:25;;;;;;;14.33;4.63;;;;;;;-0.06;78.14;101939.78;126856;1096;104586;-78
2020/12/06 07:22:55;;;;;;;17.00;6.40;;;;;;;-0.15;77.82;101932.02;126782;1095;104551;-79
2020/12/06 07:25:26;;;;;;;15.53;5.07;;;;;;;-0.20;78.24;101928.06;126805;1095;104503;-80
2020/12/06 07:27:55;;;;;;;21.07;6.30;;;;;;;-0.21;78.37;101936.55;126814;1095;105061;-81
2020/12/06 07:30:25;;;;;;;19.63;6.73;;;;;;;-0.17;78.94;101937.77;126803;1096;104506;-81
2020/12/06 07:32:57;;;;;;;13.67;4.87;;;;;;;-0.14;78.42;101935.49;126699;1095;105693;-79
2020/12/06 07:35:27;;;;;;;19.97;7.00;;;;;;;-0.14;78.42;101939.01;126638;1095;104471;-80
2020/12/06 07:37:58;;;;;;;21.63;7.17;;;;;;;-0.13;78.58;101942.49;126789;1095;104496;-80
2020/12/06 07:40:27;;;;;;;26.80;7.40;;;;;;;-0.12;78.02;101941.75;126830;1096;104611;-80
2020/12/06 07:42:56;;;;;;;22.47;7.47;;;;;;;-0.08;78.34;101939.63;126841;1095;104445;-78
2020/12/06 07:45:28;;;;;;;26.07;7.77;;;;;;;-0.03;78.13;101943.58;126835;1095;104651;-78
2020/12/06 07:47:57;;;;;;;22.57;8.77;;;;;;;-0.01;78.15;101941.16;126797;1095;104596;-78
2020/12/06 07:50:26;;;;;;;18.23;6.50;;;;;;;-0.03;78.34;101938.42;126810;1095;104580;-79
2020/12/06 07:53:02;;;;;;;25.03;7.30;;;;;;;-0.04;78.91;101941.75;126815;1095;104908;-79
2020/12/06 07:55:31;;;;;;;20.70;6.60;;;;;;;-0.04;78.53;101939.16;126849;1095;104449;-79
2020/12/06 07:58:11;;;;;;;18.73;6.40;;;;;;;-0.04;78.69;101941.75;126806;1094;104653;-80
2020/12/06 08:00:41;;;;;;;20.27;7.17;;;;;;;-0.04;78.35;101936.58;126794;1095;104694;-79
2020/12/06 08:03:14;;;;;;;24.30;6.97;;;;;;;-0.01;78.45;101942.05;126862;1095;104573;-80
2020/12/06 08:05:45;;;;;;;22.30;7.70;;;;;;;0.03;78.28;101942.36;126849;1095;104606;-79
2020/12/06 08:08:20;;;;;;;21.37;7.20;;;;;;;0.06;78.30;101946.16;126855;1095;104497;-79
2020/12/06 08:10:52;;;;;;;26.73;8.27;;;;;;;0.00;77.78;101935.25;126837;1095;104442;-79
2020/12/06 08:13:23;;;;;;;21.23;7.80;;;;;;;-0.02;78.23;101934.16;126823;1095;104445;-79
2020/12/06 08:15:52;;;;;;;23.90;8.73;;;;;;;0.00;78.02;101930.09;126854;1095;104582;-78
2020/12/06 08:18:24;;;;;;;25.73;9.07;;;;;;;0.01;78.43;101936.14;126857;1095;104442;-78
2020/12/06 08:20:56;;;;;;;28.13;9.00;;;;;;;-0.02;78.23;101939.32;126891;1095;104503;-79
2020/12/06 08:23:48;;;;;;;25.57;8.80;;;;;;;0.00;78.21;101927.50;126819;1095;104474;-80
2020/12/06 08:26:41;;;;;;;24.60;8.70;;;;;;;0.07;78.59;101922.18;126576;1095;104839;-79
2020/12/06 08:29:10;;;;;;;24.70;8.00;;;;;;;0.10;78.43;101919.01;126786;1095;104468;-78
2020/12/06 08:31:39;;;;;;;23.85;9.35;;;;;;;0.11;78.37;101923.39;126844;1095;104493;-78
2020/12/06 08:34:12;;;;;;;20.10;7.87;;;;;;;0.12;78.72;101918.37;126862;1095;104608;-80
2020/12/06 08:37:27;;;;;;;23.40;7.95;;;;;;;0.14;78.39;101911.72;126774;1095;104442;-80
2020/12/06 08:40:03;;;;;;;18.60;6.10;;;;;;;0.14;78.00;101914.30;126471;1095;104736;-79
2020/12/06 08:42:32;;;;;;;23.70;8.53;;;;;;;0.13;78.41;101908.98;126815;1095;104731;-78
2020/12/06 08:45:03;;;;;;;25.03;9.70;;;;;;;0.10;77.42;101911.27;126818;1095;104608;-78
2020/12/06 08:47:46;;;;;;;26.30;9.07;;;;;;;0.05;77.96;101909.87;126833;1095;104573;-79
2020/12/06 08:50:19;;;;;;;21.83;7.33;;;;;;;0.08;78.53;101911.11;126838;1095;104580;-78
2020/12/06 08:53:04;;;;;;;21.83;7.70;;;;;;;0.08;78.04;101905.02;126778;1095;104650;-78
2020/12/06 09:02:41;;;;;;;22.73;8.43;;;;;;;-0.15;78.45;101901.05;126365;1098;104606;-80
2020/12/06 09:05:11;;;;;;;20.57;7.23;;;;;;;-0.12;78.31;101906.52;126439;1098;104452;-79
2020/12/06 09:07:43;;;;;;;22.17;7.67;;;;;;;-0.09;78.56;101909.41;126478;1098;104481;-79
2020/12/06 09:10:25;;;;;;;19.83;7.40;;;;;;;-0.11;77.55;101907.42;126458;1098;104637;-80
2020/12/06 09:13:09;;;;;;;23.10;9.20;;;;;;;-0.10;78.38;101904.09;126431;1098;104453;-80
2020/12/06 09:15:52;;;;;;;23.17;9.27;;;;;;;-0.02;78.23;101895.45;126391;1098;104440;-80
2020/12/06 09:18:22;;;;;;;21.87;8.00;;;;;;;0.07;78.36;101892.89;126438;1099;104602;-80
2020/12/06 09:20:51;;;;;;;25.07;7.87;;;;;;;0.09;78.05;101892.26;126460;1098;104666;-79
2020/12/06 09:23:20;;;;;;;20.70;7.93;;;;;;;0.05;77.53;101887.57;126521;1099;104538;-80
2020/12/06 09:25:49;;;;;;;16.17;6.63;;;;;;;0.04;78.15;101885.73;126493;1098;104519;-79
2020/12/06 09:28:18;;;;;;;22.80;8.10;;;;;;;-0.05;77.39;101893.49;126494;1099;104600;-78
2020/12/06 09:30:46;;;;;;;20.85;8.30;;;;;;;-0.09;77.33;101885.29;126505;1098;104548;-78
2020/12/06 09:33:15;;;;;;;20.80;7.43;;;;;;;-0.04;78.46;101894.39;126504;1098;104663;-78
2020/12/06 09:35:54;;;;;;;23.77;9.47;;;;;;;-0.03;78.33;101886.80;126427;1098;104706;-80
2020/12/06 09:38:41;;;;;;;21.20;8.07;;;;;;;0.01;78.21;101885.43;126408;1098;104465;-79
2020/12/06 09:41:16;;;;;;;21.73;8.18;;;;;;;0.07;78.62;101877.41;126490;1098;104455;-79
2020/12/06 09:43:46;;;;;;;23.50;8.60;;;;;;;0.14;78.07;101877.23;126517;1098;104718;-79
2020/12/06 09:46:16;;;;;;;23.67;8.13;;;;;;;0.13;77.86;101883.17;126493;1098;104660;-80
2020/12/06 09:48:45;;;;;;;22.60;8.80;;;;;;;0.17;78.14;101882.70;126499;1098;104451;-78
2020/12/06 09:51:14;;;;;;;19.27;7.47;;;;;;;0.13;77.98;101888.34;126820;1095;104608;-79
2020/12/06 09:53:44;;;;;;;24.47;9.27;;;;;;;0.14;77.87;101887.56;126857;1095;104439;-79
2020/12/06 09:56:13;;;;;;;23.57;9.17;;;;;;;0.15;77.85;101881.65;126803;1095;104542;-78
2020/12/06 09:58:42;;;;;;;21.17;7.90;;;;;;;0.16;77.63;101880.90;126808;1095;104461;-78
2020/12/06 10:01:13;;;;;;;19.55;7.85;;;;;;;0.13;77.76;101878.02;126843;1095;104586;-78
2020/12/06 10:03:42;;;;;;;15.60;5.13;;;;;;;0.13;77.50;101881.50;126808;1095;104580;-78
2020/12/06 10:06:13;;;;;;;19.53;7.70;;;;;;;0.10;77.82;101877.70;126853;1095;104599;-79
2020/12/06 10:08:43;;;;;;;22.57;8.80;;;;;;;0.11;77.91;101869.19;126832;1096;104644;-80
2020/12/06 10:11:12;;;;;;;17.10;6.27;;;;;;;0.12;77.69;101873.59;126810;1096;104618;-78
2020/12/06 10:13:42;;;;;;;19.60;7.00;;;;;;;0.07;77.51;101877.41;126809;1095;104603;-78
2020/12/06 10:16:12;;;;;;;21.70;8.73;;;;;;;0.01;77.88;101871.63;126804;1095;104496;-78
2020/12/06 10:18:40;;;;;;;20.73;7.57;;;;;;;-0.04;78.08;101877.23;126829;1095;104509;-79
2020/12/06 10:21:12;;;;;;;19.83;8.37;;;;;;;-0.06;77.97;101871.02;126852;1095;104692;-80
2020/12/06 10:23:42;;;;;;;17.97;6.87;;;;;;;-0.05;78.01;101874.49;126741;1095;104585;-79
2020/12/06 10:26:12;;;;;;;19.93;7.30;;;;;;;-0.02;77.93;101873.16;126865;1095;104547;-80
2020/12/06 10:28:41;;;;;;;24.67;8.67;;;;;;;-0.01;77.60;101871.47;126789;1096;104733;-80
2020/12/06 10:31:09;;;;;;;21.87;8.30;;;;;;;0.04;78.11;101878.00;126845;1095;104462;-80
2020/12/06 10:33:38;;;;;;;20.37;8.63;;;;;;;0.06;77.90;101879.05;126818;1095;104644;-78
2020/12/06 10:36:07;;;;;;;21.40;8.23;;;;;;;0.06;78.11;101872.98;126784;1095;104657;-79
2020/12/06 10:38:36;;;;;;;24.47;9.50;;;;;;;0.06;77.48;101875.57;126843;1095;104516;-80
2020/12/06 10:41:05;;;;;;;23.10;9.67;;;;;;;0.02;77.24;101869.20;126839;1095;104512;-76
2020/12/06 10:43:34;;;;;;;24.10;8.70;;;;;;;-0.10;77.26;101865.39;126862;1095;104584;-76
2020/12/06 10:46:03;;;;;;;19.20;7.50;;;;;;;-0.15;77.26;101867.51;126862;1094;104490;-77
2020/12/06 10:48:31;;;;;;;20.30;7.23;;;;;;;-0.24;77.50;101874.33;126822;1095;104503;-77
2020/12/06 10:51:00;;;;;;;21.90;7.67;;;;;;;-0.33;77.68;101869.13;126854;1094;104532;-76
2020/12/06 10:53:31;;;;;;;23.50;9.20;;;;;;;-0.32;77.03;101870.06;126847;1095;104539;-77
2020/12/06 10:56:01;;;;;;;21.03;7.00;;;;;;;-0.32;78.03;101867.48;126845;1095;104536;-78
2020/12/06 10:58:30;;;;;;;22.63;7.33;;;;;;;-0.32;77.60;101868.39;126853;1095;104996;-78
2020/12/06 11:00:59;;;;;;;21.63;8.83;;;;;;;-0.38;77.16;101865.19;126818;1095;104438;-78
2020/12/06 11:03:29;;;;;;;23.47;8.10;;;;;;;-0.40;77.20;101861.55;126870;1095;104437;-79
2020/12/06 11:05:58;;;;;;;19.57;7.60;;;;;;;-0.38;77.98;101863.51;126853;1095;104522;-77
2020/12/06 11:08:27;;;;;;;23.13;8.57;;;;;;;-0.33;78.08;101870.81;126872;1095;104609;-79
2020/12/06 11:10:55;;;;;;;16.60;6.13;;;;;;;-0.29;78.08;101860.95;126857;1095;104712;-77
2020/12/06 11:13:26;;;;;;;21.33;8.17;;;;;;;-0.29;77.37;101860.95;126842;1096;104484;-78
2020/12/06 11:15:55;;;;;;;20.30;7.13;;;;;;;-0.32;77.63;101862.33;126853;1095;104602;-77
2020/12/06 11:18:25;;;;;;;21.60;8.43;;;;;;;-0.35;77.86;101856.86;126855;1095;104619;-78
2020/12/06 11:20:54;;;;;;;20.03;6.70;;;;;;;-0.30;77.81;101858.23;126862;1095;104503;-77
2020/12/06 11:23:23;;;;;;;21.70;7.10;;;;;;;-0.29;77.47;101860.95;126877;1095;104647;-77
2020/12/06 11:25:52;;;;;;;18.25;7.10;;;;;;;-0.23;77.75;101855.52;126834;1095;104490;-78
2020/12/06 11:28:21;;;;;;;22.70;7.80;;;;;;;-0.22;77.22;101850.52;126819;1095;104619;-78
2020/12/06 11:30:50;;;;;;;19.20;7.37;;;;;;;-0.19;77.74;101850.82;126841;1095;104585;-78
2020/12/06 11:33:19;;;;;;;20.63;8.20;;;;;;;-0.16;77.69;101842.45;126881;1095;104629;-79
2020/12/06 11:35:48;;;;;;;19.20;7.55;;;;;;;-0.14;77.79;101859.02;126864;1094;104481;-77
2020/12/06 11:38:17;;;;;;;19.67;7.60;;;;;;;-0.11;77.97;101855.81;126797;1095;104555;-77
2020/12/06 11:40:46;;;;;;;20.43;8.00;;;;;;;-0.14;77.37;101861.60;126855;1095;104506;-78
2020/12/06 11:43:15;;;;;;;23.37;8.60;;;;;;;-0.10;77.15;101862.81;126849;1095;104497;-78
2020/12/06 11:45:44;;;;;;;19.77;8.63;;;;;;;-0.05;77.43;101864.17;126836;1095;104445;-79
2020/12/06 11:48:13;;;;;;;20.60;8.13;;;;;;;0.03;77.65;101859.78;126796;1095;104599;-78
2020/12/06 11:50:42;;;;;;;16.07;6.37;;;;;;;0.05;77.60;101855.66;126825;1095;104563;-77
2020/12/06 11:53:11;;;;;;;24.57;8.77;;;;;;;0.00;77.02;101857.82;126864;1095;104519;-78
2020/12/06 11:55:40;;;;;;;18.77;7.23;;;;;;;0.00;77.27;101855.24;126862;1095;105252;-76
2020/12/06 11:58:13;;;;;;;18.10;6.90;;;;;;;-0.02;77.77;101860.25;126865;1095;104574;-78
2020/12/06 12:00:42;;;;;;;20.82;7.17;;;;;;;-0.03;77.24;101850.67;126797;1095;104478;-78
2020/12/06 12:03:11;;;;;;;22.60;7.43;;;;;;;-0.04;77.06;101851.42;126816;1095;104516;-77
2020/12/06 12:05:40;;;;;;;16.40;6.73;;;;;;;-0.06;77.86;101849.47;126875;1095;104612;-78
2020/12/06 12:08:11;;;;;;;16.00;6.03;;;;;;;-0.05;77.28;101851.27;126823;1095;104438;-77
2020/12/06 12:10:42;;;;;;;20.77;7.00;;;;;;;-0.07;77.41;101848.53;126536;1096;104624;-77
2020/12/06 12:13:11;;;;;;;18.87;6.63;;;;;;;-0.09;77.15;101850.06;126470;1096;104814;-79
2020/12/06 12:15:55;;;;;;;16.00;6.97;;;;;;;-0.08;77.62;101850.96;126372;1097;104509;-79
2020/12/06 12:18:39;;;;;;;17.80;6.53;;;;;;;-0.07;77.21;101857.95;126388;1097;104480;-79
2020/12/06 12:21:09;;;;;;;14.53;5.93;;;;;;;-0.05;77.73;101851.27;126476;1097;104497;-78
2020/12/06 12:23:38;;;;;;;18.30;5.90;;;;;;;-0.12;76.98;101854.02;126512;1097;104660;-77
2020/12/06 12:26:09;;;;;;;18.50;6.65;;;;;;;-0.21;77.45;101857.47;126497;1097;105758;-77
2020/12/06 12:28:38;;;;;;;17.77;5.70;;;;;;;-0.24;77.59;101849.42;126508;1097;104586;-80
2020/12/06 12:31:35;;;;;;;16.80;5.80;;;;;;;-0.27;77.74;101855.95;126428;1096;104506;-79
2020/12/06 12:34:11;;;;;;;17.73;6.50;;;;;;;-0.27;77.57;101853.38;126354;1097;104526;-80
2020/12/06 12:36:42;;;;;;;19.60;7.30;;;;;;;-0.24;77.51;101854.59;126543;1097;104966;-78
2020/12/06 12:39:12;;;;;;;19.80;7.27;;;;;;;-0.22;77.10;101857.31;126493;1097;104445;-78